sensor_id;sensor_type;location;lat;lon;timestamp;temperature;humidity
30678;DHT22;17437;47.188;8.896;2022-11-15T00:01:01;6.70;99.90
30678;DHT22;17437;47.188;8.896;2022-11-15T00:03:32;6.70;99.90
30678;DHT22;17437;47.188;8.896;2022-11-15T00:06:04;6.60;99.90
30678;DHT22;17437;47.188;8.896;2022-11-15T00:08:36;6.60;99.90
30678;DHT22;17437;47.188;8.896;2022-11-15T00:11:09;6.60;99.90
30678;DHT22;17437;47.188;8.896;2022-11-15T00:13:41;6.60;99.90
30678;DHT22;17437;47.188;8.896;2022-11-15T00:16:12;6.50;99.90
30678;DHT22;17437;47.188;8.896;2022-11-15T00:18:43;6.50;99.90
30678;DHT22;17437;47.188;8.896;2022-11-15T00:21:17;6.50;99.90
30678;DHT22;17437;47.188;8.896;2022-11-15T00:23:49;6.50;99.90
30678;DHT22;17437;47.188;8.896;2022-11-15T00:26:20;6.50;99.90
30678;DHT22;17437;47.188;8.896;2022-11-15T00:28:52;6.50;99.90
30678;DHT22;17437;47.188;8.896;2022-11-15T00:31:23;6.50;99.90
30678;DHT22;17437;47.188;8.896;2022-11-15T00:33:54;6.40;99.90
30678;DHT22;17437;47.188;8.896;2022-11-15T00:36:25;6.40;99.90
30678;DHT22;17437;47.188;8.896;2022-11-15T00:38:57;6.30;99.90
30678;DHT22;17437;47.188;8.896;2022-11-15T00:41:28;6.30;99.90
30678;DHT22;17437;47.188;8.896;2022-11-15T00:43:59;6.20;99.90
30678;DHT22;17437;47.188;8.896;2022-11-15T00:46:30;6.20;99.90
30678;DHT22;17437;47.188;8.896;2022-11-15T00:49:02;6.20;99.90
30678;DHT22;17437;47.188;8.896;2022-11-15T00:51:33;6.20;99.90
30678;DHT22;17437;47.188;8.896;2022-11-15T00:54:04;6.20;99.90
30678;DHT22;17437;47.188;8.896;2022-11-15T00:56:36;6.20;99.90
30678;DHT22;17437;47.188;8.896;2022-11-15T00:59:07;6.30;99.90
30678;DHT22;17437;47.188;8.896;2022-11-15T01:01:38;6.30;99.90
30678;DHT22;17437;47.188;8.896;2022-11-15T01:04:08;6.30;99.90
30678;DHT22;17437;47.188;8.896;2022-11-15T01:06:39;6.40;99.90
30678;DHT22;17437;47.188;8.896;2022-11-15T01:09:10;6.40;99.90
30678;DHT22;17437;47.188;8.896;2022-11-15T01:11:42;6.40;99.90
30678;DHT22;17437;47.188;8.896;2022-11-15T01:14:13;6.50;99.90
30678;DHT22;17437;47.188;8.896;2022-11-15T01:16:44;6.50;99.90
30678;DHT22;17437;47.188;8.896;2022-11-15T01:19:16;6.50;99.90
30678;DHT22;17437;47.188;8.896;2022-11-15T01:21:49;6.60;99.90
30678;DHT22;17437;47.188;8.896;2022-11-15T01:24:21;6.60;99.90
30678;DHT22;17437;47.188;8.896;2022-11-15T01:26:52;6.60;99.90
30678;DHT22;17437;47.188;8.896;2022-11-15T01:29:24;6.60;99.90
30678;DHT22;17437;47.188;8.896;2022-11-15T01:31:55;6.60;99.90
30678;DHT22;17437;47.188;8.896;2022-11-15T01:34:26;6.70;99.90
30678;DHT22;17437;47.188;8.896;2022-11-15T01:36:58;6.70;99.90
30678;DHT22;17437;47.188;8.896;2022-11-15T01:39:29;6.70;99.90
30678;DHT22;17437;47.188;8.896;2022-11-15T01:42:01;6.80;99.90
30678;DHT22;17437;47.188;8.896;2022-11-15T01:44:44;6.70;99.90
30678;DHT22;17437;47.188;8.896;2022-11-15T01:47:18;6.70;99.90
30678;DHT22;17437;47.188;8.896;2022-11-15T01:49:54;6.70;99.90
30678;DHT22;17437;47.188;8.896;2022-11-15T01:52:28;6.70;99.90
30678;DHT22;17437;47.188;8.896;2022-11-15T01:55:03;6.70;99.90
30678;DHT22;17437;47.188;8.896;2022-11-15T01:57:35;6.60;99.90
30678;DHT22;17437;47.188;8.896;2022-11-15T02:00:09;6.50;99.90
30678;DHT22;17437;47.188;8.896;2022-11-15T02:02:40;6.50;99.90
30678;DHT22;17437;47.188;8.896;2022-11-15T02:05:12;6.40;99.90
30678;DHT22;17437;47.188;8.896;2022-11-15T02:07:43;6.30;99.90
30678;DHT22;17437;47.188;8.896;2022-11-15T02:10:18;6.30;99.90
30678;DHT22;17437;47.188;8.896;2022-11-15T02:12:50;6.20;99.90
30678;DHT22;17437;47.188;8.896;2022-11-15T02:15:22;6.20;99.90
30678;DHT22;17437;47.188;8.896;2022-11-15T02:18:04;6.10;99.90
30678;DHT22;17437;47.188;8.896;2022-11-15T02:24:15;6.00;99.90
30678;DHT22;17437;47.188;8.896;2022-11-15T02:32:40;5.80;99.90
30678;DHT22;17437;47.188;8.896;2022-11-15T02:35:16;5.80;99.90
30678;DHT22;17437;47.188;8.896;2022-11-15T02:37:51;5.80;99.90
30678;DHT22;17437;47.188;8.896;2022-11-15T02:40:31;5.80;99.90
30678;DHT22;17437;47.188;8.896;2022-11-15T02:43:06;5.80;99.90
30678;DHT22;17437;47.188;8.896;2022-11-15T02:45:59;5.80;99.90
30678;DHT22;17437;47.188;8.896;2022-11-15T02:48:31;5.70;99.90
30678;DHT22;17437;47.188;8.896;2022-11-15T02:51:03;5.70;99.90
30678;DHT22;17437;47.188;8.896;2022-11-15T02:53:34;5.70;99.90
30678;DHT22;17437;47.188;8.896;2022-11-15T02:56:10;5.70;99.90
30678;DHT22;17437;47.188;8.896;2022-11-15T02:58:59;5.70;99.90
30678;DHT22;17437;47.188;8.896;2022-11-15T03:01:38;5.60;99.90
30678;DHT22;17437;47.188;8.896;2022-11-15T03:04:16;5.60;99.90
30678;DHT22;17437;47.188;8.896;2022-11-15T03:06:50;5.60;99.90
30678;DHT22;17437;47.188;8.896;2022-11-15T03:09:27;5.60;99.90
30678;DHT22;17437;47.188;8.896;2022-11-15T03:12:03;5.50;99.90
30678;DHT22;17437;47.188;8.896;2022-11-15T03:14:35;5.40;99.90
30678;DHT22;17437;47.188;8.896;2022-11-15T03:17:11;5.40;99.90
30678;DHT22;17437;47.188;8.896;2022-11-15T03:19:44;5.30;99.90
30678;DHT22;17437;47.188;8.896;2022-11-15T03:22:19;5.30;99.90
30678;DHT22;17437;47.188;8.896;2022-11-15T03:24:53;5.20;99.90
30678;DHT22;17437;47.188;8.896;2022-11-15T03:27:28;5.20;99.90
30678;DHT22;17437;47.188;8.896;2022-11-15T03:30:02;5.20;99.90
30678;DHT22;17437;47.188;8.896;2022-11-15T03:32:37;5.20;99.90
30678;DHT22;17437;47.188;8.896;2022-11-15T03:35:12;5.10;99.90
30678;DHT22;17437;47.188;8.896;2022-11-15T03:37:59;5.10;99.90
30678;DHT22;17437;47.188;8.896;2022-11-15T03:40:22;5.10;99.90
30678;DHT22;17437;47.188;8.896;2022-11-15T03:42:57;5.10;99.90
30678;DHT22;17437;47.188;8.896;2022-11-15T03:45:31;5.00;99.90
30678;DHT22;17437;47.188;8.896;2022-11-15T03:48:07;5.00;99.90
30678;DHT22;17437;47.188;8.896;2022-11-15T03:50:38;5.00;99.90
30678;DHT22;17437;47.188;8.896;2022-11-15T03:53:09;5.10;99.90
30678;DHT22;17437;47.188;8.896;2022-11-15T03:55:41;5.30;99.90
30678;DHT22;17437;47.188;8.896;2022-11-15T03:58:12;5.40;99.90
30678;DHT22;17437;47.188;8.896;2022-11-15T04:00:42;5.30;99.90
30678;DHT22;17437;47.188;8.896;2022-11-15T04:03:13;5.30;99.90
30678;DHT22;17437;47.188;8.896;2022-11-15T04:05:44;5.20;99.90
30678;DHT22;17437;47.188;8.896;2022-11-15T04:08:15;5.20;99.90
30678;DHT22;17437;47.188;8.896;2022-11-15T04:10:48;5.10;99.90
30678;DHT22;17437;47.188;8.896;2022-11-15T04:13:18;5.10;99.90
30678;DHT22;17437;47.188;8.896;2022-11-15T04:15:48;5.00;99.90
30678;DHT22;17437;47.188;8.896;2022-11-15T04:18:19;5.00;99.90
30678;DHT22;17437;47.188;8.896;2022-11-15T04:20:50;5.00;99.90
30678;DHT22;17437;47.188;8.896;2022-11-15T04:23:39;5.00;99.90
30678;DHT22;17437;47.188;8.896;2022-11-15T04:26:28;5.00;99.90
30678;DHT22;17437;47.188;8.896;2022-11-15T04:29:00;5.00;99.90
30678;DHT22;17437;47.188;8.896;2022-11-15T04:31:48;4.90;99.90
30678;DHT22;17437;47.188;8.896;2022-11-15T04:34:20;4.90;99.90
30678;DHT22;17437;47.188;8.896;2022-11-15T04:36:50;4.90;99.90
30678;DHT22;17437;47.188;8.896;2022-11-15T04:39:38;5.00;99.90
30678;DHT22;17437;47.188;8.896;2022-11-15T04:42:10;5.00;99.90
30678;DHT22;17437;47.188;8.896;2022-11-15T04:44:41;5.10;99.90
30678;DHT22;17437;47.188;8.896;2022-11-15T04:47:11;5.10;99.90
30678;DHT22;17437;47.188;8.896;2022-11-15T04:49:43;5.10;99.90
30678;DHT22;17437;47.188;8.896;2022-11-15T04:52:14;5.10;99.90
30678;DHT22;17437;47.188;8.896;2022-11-15T04:54:44;5.00;99.90
30678;DHT22;17437;47.188;8.896;2022-11-15T04:57:15;5.00;99.90
30678;DHT22;17437;47.188;8.896;2022-11-15T04:59:47;4.90;99.90
30678;DHT22;17437;47.188;8.896;2022-11-15T05:02:18;4.90;99.90
30678;DHT22;17437;47.188;8.896;2022-11-15T05:04:49;4.80;99.90
30678;DHT22;17437;47.188;8.896;2022-11-15T05:07:19;4.80;99.90
30678;DHT22;17437;47.188;8.896;2022-11-15T05:09:51;4.80;99.90
30678;DHT22;17437;47.188;8.896;2022-11-15T05:12:21;4.70;99.90
30678;DHT22;17437;47.188;8.896;2022-11-15T05:14:52;4.80;99.90
30678;DHT22;17437;47.188;8.896;2022-11-15T05:17:23;4.80;99.90
30678;DHT22;17437;47.188;8.896;2022-11-15T05:19:54;4.80;99.90
30678;DHT22;17437;47.188;8.896;2022-11-15T05:22:26;4.70;99.90
30678;DHT22;17437;47.188;8.896;2022-11-15T05:24:58;4.70;99.90
30678;DHT22;17437;47.188;8.896;2022-11-15T05:27:28;4.60;99.90
30678;DHT22;17437;47.188;8.896;2022-11-15T05:29:59;4.50;99.90
30678;DHT22;17437;47.188;8.896;2022-11-15T05:32:30;4.50;99.90
30678;DHT22;17437;47.188;8.896;2022-11-15T05:35:02;4.50;99.90
30678;DHT22;17437;47.188;8.896;2022-11-15T05:37:34;4.40;99.90
30678;DHT22;17437;47.188;8.896;2022-11-15T05:40:08;4.40;99.90
30678;DHT22;17437;47.188;8.896;2022-11-15T05:42:39;4.40;99.90
30678;DHT22;17437;47.188;8.896;2022-11-15T05:45:12;4.30;99.90
30678;DHT22;17437;47.188;8.896;2022-11-15T05:47:43;4.30;99.90
30678;DHT22;17437;47.188;8.896;2022-11-15T05:50:17;4.30;99.90
30678;DHT22;17437;47.188;8.896;2022-11-15T05:52:49;4.30;99.90
30678;DHT22;17437;47.188;8.896;2022-11-15T05:55:45;4.30;99.90
30678;DHT22;17437;47.188;8.896;2022-11-15T05:58:19;4.20;99.90
30678;DHT22;17437;47.188;8.896;2022-11-15T06:00:52;4.20;99.90
30678;DHT22;17437;47.188;8.896;2022-11-15T06:03:25;4.10;99.90
30678;DHT22;17437;47.188;8.896;2022-11-15T06:05:57;4.20;99.90
30678;DHT22;17437;47.188;8.896;2022-11-15T06:08:29;4.20;99.90
30678;DHT22;17437;47.188;8.896;2022-11-15T06:11:03;4.30;99.90
30678;DHT22;17437;47.188;8.896;2022-11-15T06:13:34;4.30;99.90
30678;DHT22;17437;47.188;8.896;2022-11-15T06:16:06;4.30;99.90
30678;DHT22;17437;47.188;8.896;2022-11-15T06:18:38;4.30;99.90
30678;DHT22;17437;47.188;8.896;2022-11-15T06:21:09;4.30;99.90
30678;DHT22;17437;47.188;8.896;2022-11-15T06:23:40;4.30;99.90
30678;DHT22;17437;47.188;8.896;2022-11-15T06:26:11;4.20;99.90
30678;DHT22;17437;47.188;8.896;2022-11-15T06:28:43;4.20;99.90
30678;DHT22;17437;47.188;8.896;2022-11-15T06:31:14;4.10;99.90
30678;DHT22;17437;47.188;8.896;2022-11-15T06:33:44;4.20;99.90
30678;DHT22;17437;47.188;8.896;2022-11-15T06:36:15;4.20;99.90
30678;DHT22;17437;47.188;8.896;2022-11-15T06:38:47;4.30;99.90
30678;DHT22;17437;47.188;8.896;2022-11-15T06:41:18;4.20;99.90
30678;DHT22;17437;47.188;8.896;2022-11-15T06:43:51;4.30;99.90
30678;DHT22;17437;47.188;8.896;2022-11-15T06:46:21;4.30;99.90
30678;DHT22;17437;47.188;8.896;2022-11-15T06:48:52;4.30;99.90
30678;DHT22;17437;47.188;8.896;2022-11-15T06:51:26;4.30;99.90
30678;DHT22;17437;47.188;8.896;2022-11-15T06:53:57;4.40;99.90
30678;DHT22;17437;47.188;8.896;2022-11-15T06:56:28;4.50;99.90
30678;DHT22;17437;47.188;8.896;2022-11-15T06:59:01;4.50;99.90
30678;DHT22;17437;47.188;8.896;2022-11-15T07:01:32;4.60;99.90
30678;DHT22;17437;47.188;8.896;2022-11-15T07:04:04;4.80;99.90
30678;DHT22;17437;47.188;8.896;2022-11-15T07:06:35;4.90;99.90
30678;DHT22;17437;47.188;8.896;2022-11-15T07:09:06;5.00;99.90
30678;DHT22;17437;47.188;8.896;2022-11-15T07:11:38;5.10;99.90
30678;DHT22;17437;47.188;8.896;2022-11-15T07:14:08;5.20;99.90
30678;DHT22;17437;47.188;8.896;2022-11-15T07:16:39;5.30;99.90
30678;DHT22;17437;47.188;8.896;2022-11-15T07:19:10;5.40;99.90
30678;DHT22;17437;47.188;8.896;2022-11-15T07:21:41;5.60;99.90
30678;DHT22;17437;47.188;8.896;2022-11-15T07:24:11;5.70;99.90
30678;DHT22;17437;47.188;8.896;2022-11-15T07:26:43;5.90;99.90
30678;DHT22;17437;47.188;8.896;2022-11-15T07:29:14;6.00;99.90
30678;DHT22;17437;47.188;8.896;2022-11-15T07:31:45;6.20;99.90
30678;DHT22;17437;47.188;8.896;2022-11-15T07:34:16;6.20;99.90
30678;DHT22;17437;47.188;8.896;2022-11-15T07:36:46;6.30;99.90
30678;DHT22;17437;47.188;8.896;2022-11-15T07:39:18;6.30;99.90
30678;DHT22;17437;47.188;8.896;2022-11-15T07:41:49;6.30;99.90
30678;DHT22;17437;47.188;8.896;2022-11-15T07:44:22;6.30;99.90
30678;DHT22;17437;47.188;8.896;2022-11-15T07:46:53;6.30;99.90
30678;DHT22;17437;47.188;8.896;2022-11-15T07:49:24;6.30;99.90
30678;DHT22;17437;47.188;8.896;2022-11-15T07:51:55;6.30;99.90
30678;DHT22;17437;47.188;8.896;2022-11-15T07:54:25;6.40;99.90
30678;DHT22;17437;47.188;8.896;2022-11-15T07:56:56;6.40;99.90
30678;DHT22;17437;47.188;8.896;2022-11-15T07:59:29;6.40;99.90
30678;DHT22;17437;47.188;8.896;2022-11-15T08:02:00;6.50;99.90
30678;DHT22;17437;47.188;8.896;2022-11-15T08:04:32;6.50;99.90
30678;DHT22;17437;47.188;8.896;2022-11-15T08:07:03;6.40;99.90
30678;DHT22;17437;47.188;8.896;2022-11-15T08:09:34;6.40;99.90
30678;DHT22;17437;47.188;8.896;2022-11-15T08:12:06;6.40;99.90
30678;DHT22;17437;47.188;8.896;2022-11-15T08:14:38;6.40;99.90
30678;DHT22;17437;47.188;8.896;2022-11-15T08:17:08;6.40;99.90
30678;DHT22;17437;47.188;8.896;2022-11-15T08:19:39;6.50;99.90
30678;DHT22;17437;47.188;8.896;2022-11-15T08:22:10;6.60;99.90
30678;DHT22;17437;47.188;8.896;2022-11-15T08:24:41;6.80;99.90
30678;DHT22;17437;47.188;8.896;2022-11-15T08:27:13;6.90;99.90
30678;DHT22;17437;47.188;8.896;2022-11-15T08:29:46;7.00;99.90
30678;DHT22;17437;47.188;8.896;2022-11-15T08:32:18;7.20;99.90
30678;DHT22;17437;47.188;8.896;2022-11-15T08:34:49;7.30;99.90
30678;DHT22;17437;47.188;8.896;2022-11-15T08:37:20;7.30;99.90
30678;DHT22;17437;47.188;8.896;2022-11-15T08:39:52;7.50;99.90
30678;DHT22;17437;47.188;8.896;2022-11-15T08:42:23;7.50;99.90
30678;DHT22;17437;47.188;8.896;2022-11-15T08:44:53;7.60;99.90
30678;DHT22;17437;47.188;8.896;2022-11-15T08:47:24;7.70;99.90
30678;DHT22;17437;47.188;8.896;2022-11-15T08:49:56;7.90;99.90
30678;DHT22;17437;47.188;8.896;2022-11-15T08:52:27;8.00;99.90
30678;DHT22;17437;47.188;8.896;2022-11-15T08:54:57;8.10;99.90
30678;DHT22;17437;47.188;8.896;2022-11-15T08:57:30;8.20;99.90
30678;DHT22;17437;47.188;8.896;2022-11-15T09:00:01;8.40;99.90
30678;DHT22;17437;47.188;8.896;2022-11-15T09:02:33;8.50;99.90
30678;DHT22;17437;47.188;8.896;2022-11-15T09:05:03;8.50;99.90
30678;DHT22;17437;47.188;8.896;2022-11-15T09:07:34;8.60;99.90
30678;DHT22;17437;47.188;8.896;2022-11-15T09:10:07;8.60;99.90
30678;DHT22;17437;47.188;8.896;2022-11-15T09:12:38;8.70;99.90
30678;DHT22;17437;47.188;8.896;2022-11-15T09:15:10;8.70;99.90
30678;DHT22;17437;47.188;8.896;2022-11-15T09:17:42;8.80;99.90
30678;DHT22;17437;47.188;8.896;2022-11-15T09:20:13;9.00;99.90
30678;DHT22;17437;47.188;8.896;2022-11-15T09:22:44;9.20;99.90
30678;DHT22;17437;47.188;8.896;2022-11-15T09:25:15;9.40;99.90
30678;DHT22;17437;47.188;8.896;2022-11-15T09:27:46;9.50;99.90
30678;DHT22;17437;47.188;8.896;2022-11-15T09:30:18;9.40;99.90
30678;DHT22;17437;47.188;8.896;2022-11-15T09:32:49;9.40;99.90
30678;DHT22;17437;47.188;8.896;2022-11-15T09:35:20;9.60;99.90
30678;DHT22;17437;47.188;8.896;2022-11-15T09:37:51;9.70;99.90
30678;DHT22;17437;47.188;8.896;2022-11-15T09:40:24;9.90;99.90
30678;DHT22;17437;47.188;8.896;2022-11-15T09:43:04;10.10;99.90
30678;DHT22;17437;47.188;8.896;2022-11-15T09:45:40;10.20;99.90
30678;DHT22;17437;47.188;8.896;2022-11-15T09:48:23;10.40;99.90
30678;DHT22;17437;47.188;8.896;2022-11-15T09:50:54;10.50;99.90
30678;DHT22;17437;47.188;8.896;2022-11-15T09:53:32;10.60;99.90
30678;DHT22;17437;47.188;8.896;2022-11-15T09:56:12;10.60;99.90
30678;DHT22;17437;47.188;8.896;2022-11-15T09:58:44;10.70;99.90
30678;DHT22;17437;47.188;8.896;2022-11-15T10:01:19;10.80;99.90
30678;DHT22;17437;47.188;8.896;2022-11-15T10:03:50;10.80;99.90
30678;DHT22;17437;47.188;8.896;2022-11-15T10:06:24;10.90;99.90
30678;DHT22;17437;47.188;8.896;2022-11-15T10:08:59;11.00;99.90
30678;DHT22;17437;47.188;8.896;2022-11-15T10:11:32;11.00;99.90
30678;DHT22;17437;47.188;8.896;2022-11-15T10:14:10;11.00;99.90
30678;DHT22;17437;47.188;8.896;2022-11-15T10:17:05;11.20;99.90
30678;DHT22;17437;47.188;8.896;2022-11-15T10:19:40;11.20;99.90
30678;DHT22;17437;47.188;8.896;2022-11-15T10:22:24;11.30;99.90
30678;DHT22;17437;47.188;8.896;2022-11-15T10:25:09;11.40;99.90
30678;DHT22;17437;47.188;8.896;2022-11-15T10:27:33;11.50;99.90
30678;DHT22;17437;47.188;8.896;2022-11-15T10:30:11;11.50;99.90
30678;DHT22;17437;47.188;8.896;2022-11-15T10:32:45;11.60;99.90
30678;DHT22;17437;47.188;8.896;2022-11-15T10:35:24;11.70;99.90
30678;DHT22;17437;47.188;8.896;2022-11-15T10:38:06;11.80;99.90
30678;DHT22;17437;47.188;8.896;2022-11-15T10:40:39;11.80;99.90
30678;DHT22;17437;47.188;8.896;2022-11-15T10:43:16;11.90;99.90
30678;DHT22;17437;47.188;8.896;2022-11-15T10:45:48;11.80;99.90
30678;DHT22;17437;47.188;8.896;2022-11-15T10:48:23;11.80;99.90
30678;DHT22;17437;47.188;8.896;2022-11-15T10:50:56;11.80;99.90
30678;DHT22;17437;47.188;8.896;2022-11-15T10:53:30;11.80;99.90
30678;DHT22;17437;47.188;8.896;2022-11-15T10:56:05;11.80;99.90
30678;DHT22;17437;47.188;8.896;2022-11-15T10:58:38;11.80;99.90
30678;DHT22;17437;47.188;8.896;2022-11-15T11:01:13;11.80;99.90
30678;DHT22;17437;47.188;8.896;2022-11-15T11:03:57;11.90;99.90
30678;DHT22;17437;47.188;8.896;2022-11-15T11:06:18;12.00;99.90
30678;DHT22;17437;47.188;8.896;2022-11-15T11:08:56;12.00;99.90
30678;DHT22;17437;47.188;8.896;2022-11-15T11:11:44;12.00;99.90
30678;DHT22;17437;47.188;8.896;2022-11-15T11:14:20;12.10;99.90
30678;DHT22;17437;47.188;8.896;2022-11-15T11:16:57;12.20;99.90
30678;DHT22;17437;47.188;8.896;2022-11-15T11:20:00;12.20;99.90
30678;DHT22;17437;47.188;8.896;2022-11-15T11:22:37;12.30;99.90
30678;DHT22;17437;47.188;8.896;2022-11-15T11:25:18;12.40;99.90
30678;DHT22;17437;47.188;8.896;2022-11-15T11:27:57;12.50;99.90
30678;DHT22;17437;47.188;8.896;2022-11-15T11:30:37;12.50;99.90
30678;DHT22;17437;47.188;8.896;2022-11-15T11:33:12;12.50;99.90
30678;DHT22;17437;47.188;8.896;2022-11-15T11:35:56;12.50;99.90
30678;DHT22;17437;47.188;8.896;2022-11-15T11:38:41;12.60;99.90
30678;DHT22;17437;47.188;8.896;2022-11-15T11:41:18;12.70;99.90
30678;DHT22;17437;47.188;8.896;2022-11-15T11:43:54;12.70;99.90
30678;DHT22;17437;47.188;8.896;2022-11-15T11:46:36;12.60;99.90
30678;DHT22;17437;47.188;8.896;2022-11-15T11:49:10;12.60;99.90
30678;DHT22;17437;47.188;8.896;2022-11-15T11:51:45;12.60;99.90
30678;DHT22;17437;47.188;8.896;2022-11-15T11:54:20;12.70;99.90
30678;DHT22;17437;47.188;8.896;2022-11-15T11:56:53;12.60;99.90
30678;DHT22;17437;47.188;8.896;2022-11-15T11:59:31;12.20;99.90
30678;DHT22;17437;47.188;8.896;2022-11-15T12:02:09;12.00;99.90
30678;DHT22;17437;47.188;8.896;2022-11-15T12:04:43;11.90;99.90
30678;DHT22;17437;47.188;8.896;2022-11-15T12:07:19;11.80;99.90
30678;DHT22;17437;47.188;8.896;2022-11-15T12:09:53;11.70;99.90
30678;DHT22;17437;47.188;8.896;2022-11-15T12:12:29;11.60;99.90
30678;DHT22;17437;47.188;8.896;2022-11-15T12:15:03;11.70;99.90
30678;DHT22;17437;47.188;8.896;2022-11-15T12:17:35;11.70;99.90
30678;DHT22;17437;47.188;8.896;2022-11-15T12:23:03;11.80;99.90
30678;DHT22;17437;47.188;8.896;2022-11-15T12:25:40;11.90;99.90
30678;DHT22;17437;47.188;8.896;2022-11-15T12:28:13;11.90;99.90
30678;DHT22;17437;47.188;8.896;2022-11-15T12:30:46;11.80;99.90
30678;DHT22;17437;47.188;8.896;2022-11-15T12:33:33;11.90;99.90
30678;DHT22;17437;47.188;8.896;2022-11-15T12:36:09;11.80;99.90
30678;DHT22;17437;47.188;8.896;2022-11-15T12:38:55;11.70;99.90
30678;DHT22;17437;47.188;8.896;2022-11-15T12:41:28;11.70;99.90
30678;DHT22;17437;47.188;8.896;2022-11-15T12:44:01;11.70;99.90
30678;DHT22;17437;47.188;8.896;2022-11-15T12:47:04;11.60;99.90
30678;DHT22;17437;47.188;8.896;2022-11-15T12:49:46;11.60;99.90
30678;DHT22;17437;47.188;8.896;2022-11-15T12:52:17;11.60;99.90
30678;DHT22;17437;47.188;8.896;2022-11-15T12:55:00;11.50;99.90
30678;DHT22;17437;47.188;8.896;2022-11-15T12:57:42;11.40;99.90
30678;DHT22;17437;47.188;8.896;2022-11-15T13:00:48;11.40;99.90
30678;DHT22;17437;47.188;8.896;2022-11-15T13:03:25;11.30;99.90
30678;DHT22;17437;47.188;8.896;2022-11-15T13:06:05;11.30;99.90
30678;DHT22;17437;47.188;8.896;2022-11-15T13:08:40;11.40;99.90
30678;DHT22;17437;47.188;8.896;2022-11-15T13:11:50;11.40;99.90
30678;DHT22;17437;47.188;8.896;2022-11-15T13:17:35;11.60;99.90
30678;DHT22;17437;47.188;8.896;2022-11-15T13:20:24;11.70;99.90
30678;DHT22;17437;47.188;8.896;2022-11-15T13:23:07;11.60;99.90
30678;DHT22;17437;47.188;8.896;2022-11-15T13:26:00;11.60;99.90
30678;DHT22;17437;47.188;8.896;2022-11-15T13:28:36;11.70;99.90
30678;DHT22;17437;47.188;8.896;2022-11-15T13:31:22;11.60;99.90
30678;DHT22;17437;47.188;8.896;2022-11-15T13:33:57;11.60;99.90
30678;DHT22;17437;47.188;8.896;2022-11-15T13:36:31;11.60;99.90
30678;DHT22;17437;47.188;8.896;2022-11-15T13:39:25;11.60;99.90
30678;DHT22;17437;47.188;8.896;2022-11-15T13:41:44;11.50;99.90
30678;DHT22;17437;47.188;8.896;2022-11-15T13:44:21;11.40;99.90
30678;DHT22;17437;47.188;8.896;2022-11-15T13:47:03;11.40;99.90
30678;DHT22;17437;47.188;8.896;2022-11-15T13:49:35;11.40;99.90
30678;DHT22;17437;47.188;8.896;2022-11-15T13:52:10;11.40;99.90
30678;DHT22;17437;47.188;8.896;2022-11-15T13:54:43;11.40;99.90
30678;DHT22;17437;47.188;8.896;2022-11-15T13:57:17;11.40;99.90
30678;DHT22;17437;47.188;8.896;2022-11-15T13:59:50;11.40;99.90
30678;DHT22;17437;47.188;8.896;2022-11-15T14:02:26;11.40;99.90
30678;DHT22;17437;47.188;8.896;2022-11-15T14:05:00;11.40;99.90
30678;DHT22;17437;47.188;8.896;2022-11-15T14:07:32;11.50;99.90
30678;DHT22;17437;47.188;8.896;2022-11-15T14:10:25;11.50;99.90
30678;DHT22;17437;47.188;8.896;2022-11-15T14:12:59;11.50;99.90
30678;DHT22;17437;47.188;8.896;2022-11-15T14:15:32;11.60;99.90
30678;DHT22;17437;47.188;8.896;2022-11-15T14:18:05;11.50;99.90
30678;DHT22;17437;47.188;8.896;2022-11-15T14:20:38;11.50;99.90
30678;DHT22;17437;47.188;8.896;2022-11-15T14:23:24;11.60;99.90
30678;DHT22;17437;47.188;8.896;2022-11-15T14:25:55;11.60;99.90
30678;DHT22;17437;47.188;8.896;2022-11-15T14:28:33;11.60;99.90
30678;DHT22;17437;47.188;8.896;2022-11-15T14:31:11;11.70;99.90
30678;DHT22;17437;47.188;8.896;2022-11-15T14:33:43;11.70;99.90
30678;DHT22;17437;47.188;8.896;2022-11-15T14:36:16;11.70;99.90
30678;DHT22;17437;47.188;8.896;2022-11-15T14:38:48;11.80;99.90
30678;DHT22;17437;47.188;8.896;2022-11-15T14:41:22;11.90;99.90
30678;DHT22;17437;47.188;8.896;2022-11-15T14:43:54;11.90;99.90
30678;DHT22;17437;47.188;8.896;2022-11-15T14:46:25;11.90;99.90
30678;DHT22;17437;47.188;8.896;2022-11-15T14:48:57;11.90;99.90
30678;DHT22;17437;47.188;8.896;2022-11-15T14:51:29;12.00;99.90
30678;DHT22;17437;47.188;8.896;2022-11-15T14:54:02;11.90;99.90
30678;DHT22;17437;47.188;8.896;2022-11-15T14:56:33;11.90;99.90
30678;DHT22;17437;47.188;8.896;2022-11-15T14:59:05;11.90;99.90
30678;DHT22;17437;47.188;8.896;2022-11-15T15:01:36;11.90;99.90
30678;DHT22;17437;47.188;8.896;2022-11-15T15:04:08;11.90;99.90
30678;DHT22;17437;47.188;8.896;2022-11-15T15:06:40;11.90;99.90
30678;DHT22;17437;47.188;8.896;2022-11-15T15:09:11;11.90;99.90
30678;DHT22;17437;47.188;8.896;2022-11-15T15:11:42;11.90;99.90
30678;DHT22;17437;47.188;8.896;2022-11-15T15:14:15;11.80;99.90
30678;DHT22;17437;47.188;8.896;2022-11-15T15:16:46;11.80;99.90
30678;DHT22;17437;47.188;8.896;2022-11-15T15:19:17;11.80;99.90
30678;DHT22;17437;47.188;8.896;2022-11-15T15:21:49;11.70;99.90
30678;DHT22;17437;47.188;8.896;2022-11-15T15:24:20;11.80;99.90
30678;DHT22;17437;47.188;8.896;2022-11-15T15:26:51;11.70;99.90
30678;DHT22;17437;47.188;8.896;2022-11-15T15:29:22;11.60;99.90
30678;DHT22;17437;47.188;8.896;2022-11-15T15:31:53;11.60;99.90
30678;DHT22;17437;47.188;8.896;2022-11-15T15:34:25;11.70;99.90
30678;DHT22;17437;47.188;8.896;2022-11-15T15:37:20;11.70;99.90
30678;DHT22;17437;47.188;8.896;2022-11-15T15:39:55;11.80;99.90
30678;DHT22;17437;47.188;8.896;2022-11-15T15:42:26;11.70;99.90
30678;DHT22;17437;47.188;8.896;2022-11-15T15:44:59;11.60;99.90
30678;DHT22;17437;47.188;8.896;2022-11-15T15:47:31;11.50;99.90
30678;DHT22;17437;47.188;8.896;2022-11-15T15:50:02;11.40;99.90
30678;DHT22;17437;47.188;8.896;2022-11-15T15:52:33;11.40;99.90
30678;DHT22;17437;47.188;8.896;2022-11-15T15:55:05;11.30;99.90
30678;DHT22;17437;47.188;8.896;2022-11-15T15:57:37;11.40;99.90
30678;DHT22;17437;47.188;8.896;2022-11-15T16:00:10;11.40;99.90
30678;DHT22;17437;47.188;8.896;2022-11-15T16:02:42;11.40;99.90
30678;DHT22;17437;47.188;8.896;2022-11-15T16:05:14;11.20;99.90
30678;DHT22;17437;47.188;8.896;2022-11-15T16:07:46;11.20;99.90
30678;DHT22;17437;47.188;8.896;2022-11-15T16:10:23;11.10;99.90
30678;DHT22;17437;47.188;8.896;2022-11-15T16:12:56;11.00;99.90
30678;DHT22;17437;47.188;8.896;2022-11-15T16:15:30;10.90;99.90
30678;DHT22;17437;47.188;8.896;2022-11-15T16:18:03;10.80;99.90
30678;DHT22;17437;47.188;8.896;2022-11-15T16:20:37;10.80;99.90
30678;DHT22;17437;47.188;8.896;2022-11-15T16:23:10;10.80;99.90
30678;DHT22;17437;47.188;8.896;2022-11-15T16:25:45;10.80;99.90
30678;DHT22;17437;47.188;8.896;2022-11-15T16:28:21;10.70;99.90
30678;DHT22;17437;47.188;8.896;2022-11-15T16:31:01;10.70;99.90
30678;DHT22;17437;47.188;8.896;2022-11-15T16:33:33;10.60;99.90
30678;DHT22;17437;47.188;8.896;2022-11-15T16:36:12;10.50;99.90
30678;DHT22;17437;47.188;8.896;2022-11-15T16:38:39;10.50;99.90